createdAt,value
2018-09-08T12:06:06.840Z,22.51
2018-09-08T12:07:06.813Z,21.82
2018-09-08T12:08:06.858Z,21.40
2018-09-08T12:09:06.787Z,20.95
2018-09-08T12:10:06.811Z,20.71
2018-09-08T12:11:06.778Z,21.01
2018-09-08T12:12:06.751Z,21.53
2018-09-08T12:13:06.742Z,21.62
2018-09-08T12:14:06.733Z,21.32
2018-09-08T12:15:06.716Z,21.50
2018-09-08T12:16:06.730Z,21.63
2018-09-08T12:17:06.697Z,21.71
2018-09-08T12:18:06.690Z,21.88
2018-09-08T12:19:06.761Z,21.69
2018-09-08T12:20:06.662Z,21.98
2018-09-08T12:21:06.678Z,22.48
2018-09-08T12:22:06.684Z,22.51
2018-09-08T12:23:06.624Z,22.74
2018-09-08T12:24:06.615Z,22.53
2018-09-08T12:25:06.606Z,22.83
2018-09-08T12:26:06.597Z,22.71
2018-09-08T12:27:06.604Z,22.38
2018-09-08T12:28:06.580Z,22.12
2018-09-08T12:29:06.562Z,21.56
2018-09-08T12:30:06.546Z,21.56
2018-09-08T12:31:06.541Z,21.66
2018-09-08T12:32:06.544Z,21.60
2018-09-08T12:33:06.515Z,21.93
2018-09-08T12:34:06.500Z,21.77
2018-09-08T12:35:06.488Z,21.60
2018-09-08T12:36:06.481Z,21.65
2018-09-08T12:37:06.557Z,21.84
2018-09-08T12:38:06.462Z,22.01
2018-09-08T12:39:06.450Z,22.28
2018-09-08T12:40:06.439Z,22.34
2018-09-08T12:41:06.423Z,22.03
2018-09-08T12:42:06.411Z,21.81
2018-09-08T12:43:06.421Z,21.60
2018-09-08T12:44:06.389Z,21.93
2018-09-08T12:45:06.429Z,22.15
2018-09-08T12:46:06.372Z,22.44
2018-09-08T12:47:06.351Z,22.53
2018-09-08T12:48:06.363Z,22.06
2018-09-08T12:49:06.335Z,21.96
2018-09-08T12:50:06.328Z,21.65
2018-09-08T12:51:06.314Z,21.53
2018-09-08T12:52:06.307Z,21.18
2018-09-08T12:53:06.333Z,21.20
2018-09-08T12:54:06.275Z,21.45
2018-09-08T12:55:06.277Z,21.60
2018-09-08T12:56:06.275Z,21.81
2018-09-08T12:57:06.244Z,22.43
2018-09-08T12:58:06.235Z,22.59
2018-09-08T12:59:06.287Z,22.64
2018-09-08T13:00:06.210Z,22.58
2018-09-08T13:01:06.202Z,22.16
2018-09-08T13:02:06.183Z,22.22
2018-09-08T13:03:06.179Z,22.25
2018-09-08T13:04:06.182Z,22.09
2018-09-08T13:05:06.151Z,22.25
2018-09-08T13:06:06.159Z,22.06
2018-09-08T13:07:06.129Z,22.04
2018-09-08T13:08:06.118Z,21.84
2018-09-08T13:09:06.137Z,21.94
2018-09-08T13:10:06.102Z,21.81
2018-09-08T13:11:06.088Z,21.80
2018-09-08T13:12:06.078Z,21.69
2018-09-08T13:13:06.065Z,21.55
2018-09-08T13:14:06.097Z,21.47
2018-09-08T13:15:06.044Z,21.55
2018-09-08T13:16:06.040Z,21.08
2018-09-08T13:17:06.018Z,21.07
2018-09-08T13:18:06.010Z,21.20
2018-09-08T13:19:05.995Z,21.48
2018-09-08T13:20:06.000Z,21.65
2018-09-08T13:21:05.975Z,21.26
2018-09-08T13:22:05.965Z,20.95
2018-09-08T13:23:05.955Z,20.80
2018-09-08T13:24:05.971Z,21.04
2018-09-08T13:25:05.941Z,21.32
2018-09-08T13:26:05.911Z,21.66
2018-09-08T13:27:05.917Z,21.84
2018-09-08T13:28:05.896Z,22.06
2018-09-08T13:29:05.906Z,21.91
2018-09-08T13:30:05.896Z,21.69
2018-09-08T13:31:05.864Z,21.58
2018-09-08T13:32:05.850Z,21.44
2018-09-08T13:33:05.888Z,21.30
2018-09-08T13:34:05.828Z,21.59
2018-09-08T13:35:05.834Z,21.43
2018-09-08T13:36:05.812Z,21.28
2018-09-08T13:37:05.791Z,21.18
2018-09-08T13:38:05.777Z,21.25
2018-09-08T13:39:05.765Z,21.10
2018-09-08T13:40:05.800Z,21.11
2018-09-08T13:41:05.749Z,21.45
2018-09-08T13:42:05.748Z,21.58
2018-09-08T13:43:05.726Z,21.59
2018-09-08T13:44:05.713Z,21.65
2018-09-08T13:45:05.733Z,21.75
2018-09-08T13:46:05.698Z,21.67
2018-09-08T13:47:05.751Z,21.93
2018-09-08T13:48:05.669Z,21.93
2018-09-08T13:49:05.658Z,22.09
2018-09-08T13:50:05.653Z,22.27
2018-09-08T13:51:05.661Z,22.34
2018-09-08T13:52:05.633Z,21.94
2018-09-08T13:53:05.611Z,22.04
2018-09-08T13:54:05.605Z,21.80
2018-09-08T13:55:05.609Z,21.40
2018-09-08T13:56:05.594Z,21.65
2018-09-08T13:57:05.616Z,21.78
2018-09-08T13:58:05.552Z,21.71
2018-09-08T13:59:05.541Z,21.69
2018-09-08T14:00:05.530Z,21.80
2018-09-08T14:01:05.553Z,22.00
2018-09-08T14:02:05.513Z,21.85
2018-09-08T14:03:05.501Z,21.66
2018-09-08T14:04:05.504Z,21.56
2018-09-08T14:05:05.478Z,21.48
2018-09-08T14:06:05.465Z,21.48
2018-09-08T14:07:05.453Z,21.20
2018-09-08T14:08:05.446Z,20.98
2018-09-08T14:09:05.426Z,21.08
2018-09-08T14:10:05.418Z,21.14
2018-09-08T14:11:05.409Z,21.29
2018-09-08T14:12:05.397Z,21.50
2018-09-08T14:13:05.390Z,21.62
2018-09-08T14:14:05.374Z,21.67
2018-09-08T14:15:05.374Z,21.82
2018-09-08T14:16:05.353Z,22.00
2018-09-08T14:17:05.352Z,22.13
2018-09-08T14:18:05.330Z,21.96
2018-09-08T14:19:05.316Z,21.69
2018-09-08T14:20:05.302Z,21.55
2018-09-08T14:21:05.297Z,21.34
2018-09-08T14:22:05.306Z,21.53
2018-09-08T14:23:05.294Z,21.59
2018-09-08T14:24:05.257Z,21.44
2018-09-08T14:25:05.252Z,21.29
2018-09-08T14:26:05.240Z,21.44
2018-09-08T14:27:05.227Z,21.50
2018-09-08T14:28:05.263Z,21.44
2018-09-08T14:29:05.203Z,21.66
2018-09-08T14:30:05.195Z,21.94
2018-09-08T14:31:05.180Z,22.12
2018-09-08T14:32:05.166Z,22.38
2018-09-08T14:33:05.165Z,22.64
2018-09-08T14:34:05.149Z,22.62
2018-09-08T14:35:05.137Z,22.70
2018-09-08T14:36:05.128Z,23.48
2018-09-08T14:37:05.111Z,23.74
2018-09-08T14:38:05.139Z,23.17
2018-09-08T14:39:05.102Z,22.73
2018-09-08T14:40:05.084Z,22.38
2018-09-08T14:41:05.065Z,22.43
2018-09-08T14:42:05.055Z,22.44
2018-09-08T14:43:05.063Z,22.55
2018-09-08T14:44:05.030Z,23.10
2018-09-08T14:45:05.027Z,22.70
2018-09-08T14:46:05.013Z,22.55
2018-09-08T14:47:05.001Z,22.67
2018-09-08T14:48:05.042Z,23.69
2018-09-08T14:49:04.977Z,25.06
2018-09-08T14:50:04.964Z,26.88
2018-09-08T14:51:04.955Z,27.66
2018-09-08T14:52:04.944Z,28.30
2018-09-08T14:53:04.936Z,28.03
2018-09-08T14:54:04.928Z,28.52
2018-09-08T14:55:04.931Z,27.03
2018-09-08T14:56:04.932Z,27.16
2018-09-08T14:57:05.009Z,26.42
2018-09-08T14:58:05.018Z,26.39
2018-09-08T14:59:04.886Z,26.53
2018-09-08T15:00:04.858Z,26.39
2018-09-08T15:01:04.889Z,25.82
2018-09-08T15:02:04.831Z,24.59
2018-09-08T15:03:04.829Z,23.51
2018-09-08T15:04:04.829Z,22.73
2018-09-08T15:05:04.873Z,21.82
2018-09-08T15:06:04.791Z,21.48
2018-09-08T15:07:04.871Z,21.41
2018-09-08T15:08:04.780Z,21.66
2018-09-08T15:09:04.774Z,22.38
2018-09-08T15:10:04.765Z,22.49
2018-09-08T15:11:04.780Z,22.51
2018-09-08T15:12:04.724Z,22.27
2018-09-08T15:13:04.709Z,21.66
2018-09-08T15:14:04.731Z,21.20
2018-09-08T15:15:04.688Z,20.95
2018-09-08T15:16:04.752Z,20.83
2018-09-08T15:17:04.690Z,20.86
2018-09-08T15:18:04.743Z,20.80
2018-09-08T15:19:04.674Z,20.71
2018-09-08T15:20:04.694Z,20.71
2018-09-08T15:21:04.615Z,20.61
2018-09-08T15:22:04.608Z,20.52
2018-09-08T15:23:04.611Z,20.53
2018-09-08T15:24:05.283Z,20.58
2018-09-08T15:25:04.598Z,20.50
2018-09-08T15:26:04.570Z,20.61
2018-09-08T15:27:04.562Z,20.64
2018-09-08T15:28:04.536Z,20.60
2018-09-08T15:29:04.534Z,20.44
2018-09-08T15:30:04.549Z,20.33
2018-09-08T15:31:04.509Z,20.37
2018-09-08T15:32:04.505Z,20.29
2018-09-08T15:33:04.479Z,20.23
2018-09-08T15:34:04.479Z,20.37
2018-09-08T15:35:04.483Z,20.23
2018-09-08T15:36:04.445Z,20.15
2018-09-08T15:37:04.448Z,20.23
2018-09-08T15:38:04.432Z,20.14
2018-09-08T15:39:04.447Z,20.19
2018-09-08T15:40:04.419Z,20.05
2018-09-08T15:41:04.394Z,20.15
2018-09-08T15:42:04.389Z,20.22
2018-09-08T15:43:04.371Z,20.22
2018-09-08T15:44:04.368Z,20.23
2018-09-08T15:45:04.350Z,20.08
2018-09-08T15:46:04.456Z,19.97
2018-09-08T15:47:04.342Z,20.11
2018-09-08T15:48:04.361Z,20.09
2018-09-08T15:49:04.303Z,19.93
2018-09-08T15:50:04.294Z,20.04
2018-09-08T15:51:04.335Z,20.02
2018-09-08T15:52:04.304Z,20.09
2018-09-08T15:53:04.253Z,20.11
2018-09-08T15:54:04.250Z,20.08
2018-09-08T15:55:04.256Z,20.12
2018-09-08T15:56:04.282Z,20.26
2018-09-08T15:57:04.217Z,20.25
2018-09-08T15:58:04.217Z,20.27
2018-09-08T15:59:04.185Z,20.26
2018-09-08T16:00:04.174Z,20.25
2018-09-08T16:01:04.222Z,20.25
2018-09-08T16:02:04.183Z,20.15
2018-09-08T16:03:04.149Z,20.07
2018-09-08T16:04:04.143Z,19.99
2018-09-08T16:05:04.122Z,19.97
2018-09-08T16:06:04.152Z,19.99
2018-09-08T16:07:04.118Z,19.86
2018-09-08T16:08:04.079Z,19.89
2018-09-08T16:09:04.077Z,19.86
2018-09-08T16:10:04.081Z,19.96
2018-09-08T16:11:04.075Z,20.14
2018-09-08T16:12:04.150Z,20.09
2018-09-08T16:13:04.023Z,20.08
2018-09-08T16:14:04.014Z,19.97
2018-09-08T16:15:04.022Z,19.75
2018-09-08T16:16:04.025Z,19.78
2018-09-08T16:17:04.055Z,19.77
2018-09-08T16:18:03.992Z,19.78
2018-09-08T16:19:03.962Z,19.87
2018-09-08T16:20:03.949Z,19.90
2018-09-08T16:21:03.973Z,19.90
2018-09-08T16:22:03.930Z,19.77
2018-09-08T16:23:03.915Z,19.75
2018-09-08T16:24:03.903Z,19.90
2018-09-08T16:25:03.896Z,19.70
2018-09-08T16:26:03.881Z,19.56
2018-09-08T16:27:03.865Z,19.45
2018-09-08T16:28:03.876Z,19.35
2018-09-08T16:29:03.848Z,19.41
2018-09-08T16:30:03.864Z,19.34
2018-09-08T16:31:03.820Z,19.42
2018-09-08T16:32:03.818Z,19.44
2018-09-08T16:33:03.824Z,19.47
2018-09-08T16:34:03.788Z,19.42
2018-09-08T16:35:03.777Z,19.45
2018-09-08T16:36:03.768Z,19.54
2018-09-08T16:37:03.756Z,19.54
2018-09-08T16:38:03.740Z,19.39
2018-09-08T16:39:03.742Z,19.38
2018-09-08T16:40:03.720Z,19.35
2018-09-08T16:41:03.714Z,19.34
2018-09-08T16:42:03.703Z,19.23
2018-09-08T16:43:03.691Z,19.23
2018-09-08T16:44:03.783Z,19.19
2018-09-08T16:45:03.664Z,19.23
2018-09-08T16:46:03.664Z,19.26
2018-09-08T16:47:03.703Z,19.23
2018-09-08T16:48:03.635Z,19.20
2018-09-08T16:49:03.640Z,19.24
2018-09-08T16:50:03.663Z,19.16
2018-09-08T16:51:03.608Z,19.19
2018-09-08T16:52:03.638Z,19.12
2018-09-08T16:53:03.577Z,19.07
2018-09-08T16:54:03.585Z,19.12
2018-09-08T16:55:03.600Z,19.09
2018-09-08T16:56:03.568Z,19.09
2018-09-08T16:57:03.531Z,19.09
2018-09-08T16:58:03.586Z,19.07
2018-09-08T16:59:03.523Z,19.01
2018-09-08T17:00:03.493Z,19.07
2018-09-08T17:01:03.496Z,19.09
2018-09-08T17:02:03.476Z,19.08
2018-09-08T17:03:03.468Z,18.94
2018-09-08T17:04:03.512Z,18.85
2018-09-08T17:05:03.567Z,18.91
2018-09-08T17:06:03.430Z,18.78
2018-09-08T17:07:03.443Z,18.83
2018-09-08T17:08:03.411Z,18.83
2018-09-08T17:09:03.393Z,18.75
2018-09-08T17:10:03.411Z,18.76
2018-09-08T17:11:03.386Z,18.78
2018-09-08T17:12:03.388Z,18.76
2018-09-08T17:13:03.356Z,18.75
2018-09-08T17:14:03.345Z,18.79
2018-09-08T17:15:03.375Z,18.70
2018-09-08T17:16:03.335Z,18.57
2018-09-08T17:17:03.305Z,18.78
2018-09-08T17:18:03.303Z,18.58
2018-09-08T17:19:03.290Z,18.64
2018-09-08T17:20:03.309Z,18.57
2018-09-08T17:21:03.272Z,18.56
2018-09-08T17:22:03.248Z,18.64
2018-09-08T17:23:03.250Z,18.57
2018-09-08T17:24:03.231Z,18.60
2018-09-08T17:25:03.245Z,18.67
2018-09-08T17:26:03.211Z,18.52
2018-09-08T17:27:03.293Z,18.54
2018-09-08T17:28:03.207Z,18.58
2018-09-08T17:29:03.208Z,18.60
2018-09-08T17:30:03.209Z,18.52
2018-09-08T17:31:03.166Z,18.54
2018-09-08T17:32:03.135Z,18.46
2018-09-08T17:33:03.173Z,18.61
2018-09-08T17:34:03.139Z,18.60
2018-09-08T17:35:03.133Z,18.58
2018-09-08T17:36:03.126Z,18.49
2018-09-08T17:37:03.100Z,18.39
2018-09-08T17:38:03.074Z,18.42
2018-09-08T17:39:03.077Z,18.45
2018-09-08T17:40:03.060Z,18.39
2018-09-08T17:41:03.041Z,18.43
2018-09-08T17:42:03.049Z,18.36
2018-09-08T17:43:03.015Z,18.41
2018-09-08T17:44:03.004Z,18.27
2018-09-08T17:45:02.994Z,18.34
2018-09-08T17:46:03.030Z,18.39
2018-09-08T17:47:03.006Z,18.34
2018-09-08T17:48:02.991Z,18.39
2018-09-08T17:49:02.942Z,18.36
2018-09-08T17:50:02.961Z,18.36
2018-09-08T17:51:02.991Z,18.36
2018-09-08T17:52:03.084Z,18.34
2018-09-08T17:53:02.946Z,18.38
2018-09-08T17:54:02.895Z,18.33
2018-09-08T17:55:02.885Z,18.09
2018-09-08T17:56:02.900Z,18.09
2018-09-08T17:57:02.859Z,18.06
2018-09-08T17:58:02.850Z,18.12
2018-09-08T17:59:02.934Z,18.20
2018-09-08T18:00:02.827Z,18.11
2018-09-08T18:01:02.809Z,18.13
2018-09-08T18:02:02.816Z,18.09
2018-09-08T18:03:02.800Z,18.11
2018-09-08T18:04:02.801Z,18.06
2018-09-08T18:05:02.776Z,18.02
2018-09-08T18:06:02.762Z,18.06
2018-09-08T18:07:02.771Z,18.12
2018-09-08T18:08:02.740Z,18.09
2018-09-08T18:09:02.725Z,17.96
2018-09-08T18:10:02.716Z,17.88
2018-09-08T18:11:02.704Z,17.78
2018-09-08T18:12:02.711Z,17.73
2018-09-08T18:13:02.685Z,17.73
2018-09-08T18:14:02.673Z,17.57
2018-09-08T18:15:02.701Z,17.47
2018-09-08T18:16:02.644Z,17.45
2018-09-08T18:17:02.689Z,17.66
2018-09-08T18:18:02.623Z,17.78
2018-09-08T18:19:02.621Z,17.83
2018-09-08T18:20:02.603Z,17.65
2018-09-08T18:21:02.583Z,17.57
2018-09-08T18:22:02.575Z,17.50
2018-09-08T18:23:02.636Z,17.49
2018-09-08T18:24:02.565Z,17.59
2018-09-08T18:25:02.597Z,17.72
2018-09-08T18:26:02.543Z,17.63
2018-09-08T18:27:02.591Z,17.66
2018-09-08T18:28:02.647Z,17.73
2018-09-08T18:29:02.600Z,17.75
2018-09-08T18:30:02.498Z,17.69
2018-09-08T18:31:02.488Z,17.34
2018-09-08T18:32:02.475Z,17.35
2018-09-08T18:33:02.476Z,17.52
2018-09-08T18:34:02.450Z,17.59
2018-09-08T18:35:02.453Z,17.71
2018-09-08T18:36:02.421Z,17.57
2018-09-08T18:37:02.483Z,17.63
2018-09-08T18:38:02.399Z,17.62
2018-09-08T18:39:02.439Z,17.56
2018-09-08T18:40:02.374Z,17.52
2018-09-08T18:41:02.372Z,17.35
2018-09-08T18:42:02.370Z,17.35
2018-09-08T18:43:02.425Z,17.27
2018-09-08T18:44:02.373Z,17.30
2018-09-08T18:45:02.325Z,17.31
2018-09-08T18:46:02.347Z,17.39
2018-09-08T18:47:02.312Z,17.38
2018-09-08T18:48:02.299Z,17.39
2018-09-08T18:49:02.276Z,17.37
2018-09-08T18:50:02.264Z,17.31
2018-09-08T18:51:02.299Z,17.10
2018-09-08T18:52:02.266Z,17.12
2018-09-08T18:53:02.259Z,17.31
2018-09-08T18:54:02.243Z,17.31
2018-09-08T18:55:02.268Z,17.25
2018-09-08T18:56:02.251Z,17.25
2018-09-08T18:57:02.226Z,17.06
2018-09-08T18:58:02.209Z,17.07
2018-09-08T18:59:02.169Z,16.97
2018-09-08T19:00:02.169Z,16.84
2018-09-08T19:01:02.161Z,16.88
2018-09-08T19:02:02.131Z,16.94
2018-09-08T19:03:02.119Z,16.90
2018-09-08T19:04:02.118Z,17.09
2018-09-08T19:05:02.114Z,16.95
2018-09-08T19:06:02.087Z,17.04
2018-09-08T19:07:02.128Z,17.09
2018-09-08T19:08:02.060Z,17.06
2018-09-08T19:09:02.055Z,16.97
2018-09-08T19:10:02.105Z,17.13
2018-09-08T19:11:02.042Z,17.12
2018-09-08T19:12:02.022Z,17.17
2018-09-08T19:13:02.022Z,17.13
2018-09-08T19:14:01.995Z,17.04
2018-09-08T19:15:02.010Z,17.04
2018-09-08T19:16:01.990Z,17.06
2018-09-08T19:17:02.016Z,17.02
2018-09-08T19:18:01.956Z,17.09
2018-09-08T19:19:01.981Z,17.20
2018-09-08T19:20:02.012Z,17.25
2018-09-08T19:21:01.947Z,17.27
2018-09-08T19:22:01.930Z,17.28
2018-09-08T19:23:01.892Z,17.27
2018-09-08T19:24:01.942Z,17.28
2018-09-08T19:25:01.886Z,17.31
2018-09-08T19:26:01.911Z,17.13
2018-09-08T19:27:01.846Z,17.01
2018-09-08T19:28:01.837Z,16.83
2018-09-08T19:29:01.826Z,16.91
2018-09-08T19:30:01.818Z,16.91
2018-09-08T19:31:01.830Z,16.82
2018-09-08T19:32:02.719Z,16.80
2018-09-08T19:33:01.822Z,16.73
2018-09-08T19:34:01.791Z,16.70
2018-09-08T19:35:01.763Z,16.72
2018-09-08T19:36:01.759Z,16.76
2018-09-08T19:37:01.750Z,16.72
2018-09-08T19:38:01.719Z,16.74
2018-09-08T19:39:01.721Z,16.61
2018-09-08T19:40:01.702Z,16.52
2018-09-08T19:41:01.694Z,16.58
2018-09-08T19:42:01.699Z,16.52
2018-09-08T19:43:01.686Z,16.57
2018-09-08T19:44:01.650Z,16.64
2018-09-08T19:45:01.657Z,16.65
2018-09-08T19:46:01.632Z,16.69
2018-09-08T19:47:01.650Z,16.73
2018-09-08T19:48:01.652Z,16.74
2018-09-08T19:49:01.620Z,16.74
2018-09-08T19:50:01.592Z,16.77
2018-09-08T19:51:01.575Z,16.70
2018-09-08T19:52:01.580Z,16.72
2018-09-08T19:53:01.556Z,16.65
2018-09-08T19:54:01.543Z,16.61
2018-09-08T19:55:01.644Z,16.70
2018-09-08T19:56:01.520Z,16.69
2018-09-08T19:57:01.571Z,16.74
2018-09-08T19:58:01.494Z,16.64
2018-09-08T19:59:01.505Z,16.58
2018-09-08T20:00:01.506Z,16.61
2018-09-08T20:01:01.500Z,16.74
2018-09-08T20:02:01.527Z,16.69
2018-09-08T20:03:01.441Z,16.57
2018-09-08T20:04:01.425Z,16.51
2018-09-08T20:05:01.430Z,16.55
2018-09-08T20:06:01.409Z,16.43
2018-09-08T20:07:01.416Z,16.43
2018-09-08T20:08:01.401Z,16.39
2018-09-08T20:09:01.383Z,16.28
2018-09-08T20:10:01.381Z,16.22
2018-09-08T20:11:01.354Z,16.25
2018-09-08T20:12:01.366Z,16.32
2018-09-08T20:13:01.330Z,16.32
2018-09-08T20:14:01.319Z,16.29
2018-09-08T20:15:01.327Z,16.24
2018-09-08T20:16:01.292Z,16.25
2018-09-08T20:17:01.287Z,16.44
2018-09-08T20:18:01.285Z,16.46
2018-09-08T20:19:01.268Z,16.44
2018-09-08T20:20:01.254Z,16.42
2018-09-08T20:21:01.235Z,16.36
2018-09-08T20:22:01.230Z,16.43
2018-09-08T20:23:01.247Z,16.49
2018-09-08T20:24:01.199Z,16.55
2018-09-08T20:25:01.195Z,16.49
2018-09-08T20:26:01.191Z,16.52
2018-09-08T20:27:01.170Z,16.67
2018-09-08T20:28:01.194Z,16.55
2018-09-08T20:29:01.156Z,16.64
2018-09-08T20:30:01.135Z,16.57
2018-09-08T20:31:01.123Z,16.57
2018-09-08T20:32:01.118Z,16.55
2018-09-08T20:33:01.114Z,16.64
2018-09-08T20:34:01.108Z,16.59
2018-09-08T20:35:01.127Z,16.51
2018-09-08T20:36:01.062Z,16.46
2018-09-08T20:37:01.257Z,16.39
2018-09-08T20:38:01.062Z,16.33
2018-09-08T20:39:01.056Z,16.29
2018-09-08T20:40:01.024Z,16.24
2018-09-08T20:41:01.008Z,16.33
2018-09-08T20:42:00.999Z,16.24
2018-09-08T20:43:01.001Z,16.13
2018-09-08T20:44:00.996Z,16.09
2018-09-08T20:45:00.974Z,16.22
2018-09-08T20:46:00.959Z,16.29
2018-09-08T20:47:00.955Z,16.21
2018-09-08T20:48:00.928Z,16.26
2018-09-08T20:49:00.927Z,16.26
2018-09-08T20:50:00.925Z,16.37
2018-09-08T20:51:00.898Z,16.32
2018-09-08T20:52:00.888Z,16.49
2018-09-08T20:53:00.882Z,16.39
2018-09-08T20:54:00.863Z,16.46
2018-09-08T20:55:00.869Z,16.43
2018-09-08T20:56:00.859Z,16.49
2018-09-08T20:57:00.837Z,16.54
2018-09-08T20:58:00.839Z,16.55
2018-09-08T20:59:00.830Z,16.59
2018-09-08T21:00:00.828Z,16.57
2018-09-08T21:01:00.784Z,16.10
2018-09-08T21:02:00.769Z,16.06
2018-09-08T21:03:00.762Z,15.99
2018-09-08T21:04:00.759Z,16.13
2018-09-08T21:05:00.775Z,16.21
2018-09-08T21:06:00.727Z,16.10
2018-09-08T21:07:00.722Z,16.06
2018-09-08T21:08:00.703Z,16.02
2018-09-08T21:09:00.705Z,15.87
2018-09-08T21:10:00.699Z,15.87
2018-09-08T21:11:00.676Z,15.83
2018-09-08T21:12:00.664Z,15.87
2018-09-08T21:13:00.656Z,15.93
2018-09-08T21:14:00.640Z,15.98
2018-09-08T21:15:00.649Z,15.96
2018-09-08T21:16:00.612Z,15.81
2018-09-08T21:17:00.607Z,15.81
2018-09-08T21:18:00.596Z,15.73
2018-09-08T21:19:00.628Z,15.81
2018-09-08T21:20:00.569Z,15.93
2018-09-08T21:21:00.571Z,15.99
2018-09-08T21:22:00.558Z,16.13
2018-09-08T21:23:00.541Z,16.14
2018-09-08T21:24:00.525Z,16.14
2018-09-08T21:25:00.509Z,16.17
2018-09-08T21:26:00.518Z,16.10
2018-09-08T21:27:00.496Z,16.22
2018-09-08T21:28:00.534Z,16.03
2018-09-08T21:29:00.484Z,16.10
2018-09-08T21:30:00.469Z,16.17
2018-09-08T21:31:00.479Z,16.22
2018-09-08T21:32:00.459Z,16.16
2018-09-08T21:33:00.423Z,16.14
2018-09-08T21:34:00.414Z,16.03
2018-09-08T21:35:00.422Z,16.08
2018-09-08T21:36:00.406Z,16.09
2018-09-08T21:37:00.378Z,16.13
2018-09-08T21:38:00.369Z,16.00
2018-09-08T21:39:00.367Z,16.00
2018-09-08T21:40:00.344Z,15.81
2018-09-08T21:41:00.356Z,15.81
2018-09-08T21:42:00.363Z,15.81
2018-09-08T21:43:00.328Z,15.83
2018-09-08T21:44:00.300Z,15.69
2018-09-08T21:45:00.310Z,15.76
2018-09-08T21:46:00.301Z,15.80
2018-09-08T21:47:00.275Z,15.85
2018-09-08T21:48:00.250Z,15.73
2018-09-08T21:49:00.252Z,15.65
2018-09-08T21:50:00.230Z,15.51
2018-09-08T21:51:00.236Z,15.41
2018-09-08T21:52:00.241Z,15.38
2018-09-08T21:53:00.199Z,15.30
2018-09-08T21:54:00.188Z,15.32
2018-09-08T21:55:00.190Z,15.22
2018-09-08T21:56:00.172Z,15.19
2018-09-08T21:57:00.175Z,15.26
2018-09-08T21:58:00.140Z,15.22
2018-09-08T21:59:00.126Z,15.26
2018-09-08T22:00:00.117Z,15.35
2018-09-08T22:01:00.108Z,15.40
2018-09-08T22:02:00.117Z,15.54
2018-09-08T22:03:00.101Z,15.56
2018-09-08T22:04:00.074Z,15.66
2018-09-08T22:05:00.082Z,15.68
2018-09-08T22:06:00.048Z,15.69
2018-09-08T22:07:00.064Z,15.69
2018-09-08T22:08:00.043Z,15.48
2018-09-08T22:09:00.025Z,15.40
2018-09-08T22:10:00.001Z,15.43
2018-09-08T22:11:00.005Z,15.26
2018-09-08T22:12:00.013Z,15.32
2018-09-08T22:12:59.981Z,15.35
2018-09-08T22:13:59.957Z,15.26
2018-09-08T22:14:59.952Z,15.25
2018-09-08T22:15:59.987Z,15.17
2018-09-08T22:16:59.932Z,15.14
2018-09-08T22:17:59.936Z,15.14
2018-09-08T22:18:59.904Z,15.04
2018-09-08T22:19:59.887Z,15.11
2018-09-08T22:20:59.887Z,15.11
2018-09-08T22:21:59.868Z,15.11
2018-09-08T22:22:59.875Z,15.15
2018-09-08T22:23:59.842Z,15.25
2018-09-08T22:24:59.841Z,15.23
2018-09-08T22:25:59.851Z,15.25
2018-09-08T22:26:59.816Z,15.26
2018-09-08T22:27:59.838Z,15.32
2018-09-08T22:28:59.784Z,15.35
2018-09-08T22:29:59.788Z,15.36
2018-09-08T22:30:59.787Z,15.33
2018-09-08T22:31:59.761Z,15.35
2018-09-08T22:32:59.786Z,15.32
2018-09-08T22:33:59.743Z,15.32
2018-09-08T22:34:59.724Z,15.29
2018-09-08T22:35:59.712Z,15.23
2018-09-08T22:36:59.704Z,15.29
2018-09-08T22:37:59.685Z,15.23
2018-09-08T22:38:59.719Z,15.27
2018-09-08T22:39:59.673Z,15.22
2018-09-08T22:40:59.667Z,15.14
2018-09-08T22:41:59.650Z,15.20
2018-09-08T22:42:59.704Z,15.14
2018-09-08T22:43:59.636Z,15.26
2018-09-08T22:44:59.607Z,15.10
2018-09-08T22:45:59.605Z,15.19
2018-09-08T22:46:59.600Z,15.27
2018-09-08T22:47:59.592Z,15.29
2018-09-08T22:48:59.609Z,15.25
2018-09-08T22:49:59.548Z,15.27
2018-09-08T22:50:59.559Z,15.19
2018-09-08T22:51:59.545Z,15.30
2018-09-08T22:52:59.525Z,15.25
2018-09-08T22:53:59.519Z,15.17
2018-09-08T22:54:59.506Z,15.14
2018-09-08T22:55:59.500Z,15.15
2018-09-08T22:56:59.499Z,15.25
2018-09-08T22:57:59.469Z,15.17
2018-09-08T22:58:59.456Z,15.14
2018-09-08T22:59:59.459Z,15.25
2018-09-08T23:00:59.429Z,15.05
2018-09-08T23:01:59.428Z,15.07
2018-09-08T23:02:59.433Z,14.96
2018-09-08T23:03:59.406Z,14.89
2018-09-08T23:04:59.410Z,14.78
2018-09-08T23:05:59.400Z,14.82
2018-09-08T23:06:59.371Z,14.82
2018-09-08T23:07:59.352Z,14.86
2018-09-08T23:08:59.343Z,14.74
2018-09-08T23:09:59.346Z,14.78
2018-09-08T23:10:59.326Z,14.69
2018-09-08T23:11:59.317Z,14.85
2018-09-08T23:12:59.294Z,14.78
2018-09-08T23:13:59.292Z,14.58
2018-09-08T23:14:59.283Z,14.63
2018-09-08T23:15:59.258Z,14.59
2018-09-08T23:16:59.254Z,14.46
2018-09-08T23:17:59.255Z,14.51
2018-09-08T23:18:59.229Z,14.41
2018-09-08T23:19:59.245Z,14.37
2018-09-08T23:20:59.205Z,14.48
2018-09-08T23:21:59.200Z,14.61
2018-09-08T23:22:59.179Z,14.61
2018-09-08T23:23:59.167Z,14.55
2018-09-08T23:24:59.180Z,14.64
2018-09-08T23:25:59.153Z,14.64
2018-09-08T23:26:59.141Z,14.77
2018-09-08T23:27:59.122Z,14.77
2018-09-08T23:28:59.131Z,14.74
2018-09-08T23:29:59.114Z,14.73
2018-09-08T23:30:59.094Z,14.64
2018-09-08T23:31:59.098Z,14.66
2018-09-08T23:32:59.073Z,14.77
2018-09-08T23:33:59.059Z,14.95
2018-09-08T23:34:59.042Z,14.97
2018-09-08T23:35:59.053Z,14.99
2018-09-08T23:36:59.041Z,15.01
2018-09-08T23:37:59.044Z,15.07
2018-09-08T23:38:59.014Z,15.05
2018-09-08T23:39:58.990Z,15.04
2018-09-08T23:40:59.004Z,15.04
2018-09-08T23:41:58.972Z,15.08
2018-09-08T23:42:59.793Z,15.05
2018-09-08T23:43:58.958Z,15.05
2018-09-08T23:44:58.939Z,15.01
2018-09-08T23:45:58.928Z,15.03
2018-09-08T23:46:58.915Z,15.14
2018-09-08T23:47:58.926Z,15.05
2018-09-08T23:48:58.927Z,14.87
2018-09-08T23:49:58.883Z,14.99
2018-09-08T23:50:58.877Z,14.86
2018-09-08T23:51:58.878Z,14.87
2018-09-08T23:52:58.840Z,14.87
2018-09-08T23:53:58.834Z,14.89
2018-09-08T23:54:58.816Z,14.95
2018-09-08T23:55:58.810Z,14.92
2018-09-08T23:56:58.815Z,14.86
2018-09-08T23:57:58.789Z,14.95
2018-09-08T23:58:58.774Z,15.08
2018-09-08T23:59:58.777Z,15.15
